Terminal Aerodrome Forecast
Issued by NWS

Home | Current Version | Previous Version | Text Only | Print | Product List | Glossary On
Versions: 1 2 3 4 5 6 7 8 9 10 11 12 13
000
FTUS45 KTWC 230500
TAFOLS
TAF
KOLS 230520Z 2306/2406 23008KT P6SM BKN250
     FM230900 VRB04KT P6SM SCT250
     FM231800 23016G26KT P6SM SCT250
     FM240300 26007KT P6SM SCT250=

USA.gov is the U.S. government's official web portal to all federal, state and local government web resources and services.